sensor_id;sensor_type;location;lat;lon;timestamp;pressure;altitude;pressure_sealevel;temperature;humidity
22775;BME280;11554;51.106;3.684;2023-04-07T00:00:00;101540.08;;;7.36;100.0
22775;BME280;11554;51.106;3.684;2023-04-07T00:05:00;101543.48;;;7.32;100.0
22775;BME280;11554;51.106;3.684;2023-04-07T00:10:00;101542.61;;;7.28;100.0
22775;BME280;11554;51.106;3.684;2023-04-07T00:15:00;101539.85;;;7.28;100.0
22775;BME280;11554;51.106;3.684;2023-04-07T00:20:00;101539.95999999999;;;7.24;100.0
22775;BME280;11554;51.106;3.684;2023-04-07T00:25:00;101543.06;;;7.21;100.0
22775;BME280;11554;51.106;3.684;2023-04-07T00:30:00;101539.79000000001;;;7.17;100.0
22775;BME280;11554;51.106;3.684;2023-04-07T00:35:00;101541.76;;;7.13;100.0
22775;BME280;11554;51.106;3.684;2023-04-07T00:40:00;101545.2;;;7.10;100.0
22775;BME280;11554;51.106;3.684;2023-04-07T00:45:00;101544.94;;;7.08;100.0
22775;BME280;11554;51.106;3.684;2023-04-07T00:50:01;101551.39;;;7.07;100.0
22775;BME280;11554;51.106;3.684;2023-04-07T00:55:00;101547.41;;;7.06;100.0
22775;BME280;11554;51.106;3.684;2023-04-07T01:00:00;101551.39;;;7.03;100.0
22775;BME280;11554;51.106;3.684;2023-04-07T01:05:03;101552.45;;;7.00;100.0
22775;BME280;11554;51.106;3.684;2023-04-07T01:10:01;101555.56;;;6.97;100.0
22775;BME280;11554;51.106;3.684;2023-04-07T01:15:03;101556.12;;;6.95;100.0
22775;BME280;11554;51.106;3.684;2023-04-07T01:20:00;101555.36;;;6.94;100.0
22775;BME280;11554;51.106;3.684;2023-04-07T01:25:05;101557.26;;;6.91;100.0
22775;BME280;11554;51.106;3.684;2023-04-07T01:30:00;101556.66;;;6.86;100.0
22775;BME280;11554;51.106;3.684;2023-04-07T01:35:00;101559.42;;;6.82;100.0
22775;BME280;11554;51.106;3.684;2023-04-07T01:40:00;101568.33;;;6.77;100.0
22775;BME280;11554;51.106;3.684;2023-04-07T01:45:00;101568.98999999999;;;6.71;100.0
22775;BME280;11554;51.106;3.684;2023-04-07T01:50:00;101569.20999999999;;;6.67;100.0
22775;BME280;11554;51.106;3.684;2023-04-07T01:55:00;101572.97;;;6.58;100.0
22775;BME280;11554;51.106;3.684;2023-04-07T02:00:00;101574.97;;;6.49;100.0
22775;BME280;11554;51.106;3.684;2023-04-07T02:05:01;101575.31;;;6.43;100.0
22775;BME280;11554;51.106;3.684;2023-04-07T02:10:01;101575.64;;;6.23;100.0
22775;BME280;11554;51.106;3.684;2023-04-07T02:15:00;101576.31;;;6.03;100.0
22775;BME280;11554;51.106;3.684;2023-04-07T02:20:00;101571.97;;;5.87;100.0
22775;BME280;11554;51.106;3.684;2023-04-07T02:25:00;101579.33;;;5.75;100.0
22775;BME280;11554;51.106;3.684;2023-04-07T02:30:00;101579.31999999999;;;5.68;100.0
22775;BME280;11554;51.106;3.684;2023-04-07T02:35:00;101584.16;;;5.48;100.0
22775;BME280;11554;51.106;3.684;2023-04-07T02:40:00;101588.06;;;5.43;100.0
22775;BME280;11554;51.106;3.684;2023-04-07T02:45:00;101595.97;;;5.25;100.0
22775;BME280;11554;51.106;3.684;2023-04-07T02:50:00;101593.91;;;5.09;100.0
22775;BME280;11554;51.106;3.684;2023-04-07T02:55:00;101595.29;;;4.92;100.0
22775;BME280;11554;51.106;3.684;2023-04-07T03:00:00;101595.22;;;4.78;100.0
22775;BME280;11554;51.106;3.684;2023-04-07T03:05:00;101595.79;;;4.57;100.0
22775;BME280;11554;51.106;3.684;2023-04-07T03:10:00;101593.94;;;4.49;100.0
22775;BME280;11554;51.106;3.684;2023-04-07T03:15:00;101589.73999999999;;;4.37;100.0
22775;BME280;11554;51.106;3.684;2023-04-07T03:20:00;101589.18;;;4.21;100.0
22775;BME280;11554;51.106;3.684;2023-04-07T03:25:00;101594.31;;;4.07;100.0
22775;BME280;11554;51.106;3.684;2023-04-07T03:30:00;101595.28;;;4.00;100.0
22775;BME280;11554;51.106;3.684;2023-04-07T03:35:00;101599.15;;;3.94;100.0
22775;BME280;11554;51.106;3.684;2023-04-07T03:40:00;101599.84;;;3.81;100.0
22775;BME280;11554;51.106;3.684;2023-04-07T03:45:00;101597.22;;;3.83;100.0
22775;BME280;11554;51.106;3.684;2023-04-07T03:50:00;101598.61;;;3.74;100.0
22775;BME280;11554;51.106;3.684;2023-04-07T03:55:00;101594.65;;;3.74;100.0
22775;BME280;11554;51.106;3.684;2023-04-07T04:00:00;101597.28;;;3.68;100.0
22775;BME280;11554;51.106;3.684;2023-04-07T04:05:00;101597.81;;;3.69;100.0
22775;BME280;11554;51.106;3.684;2023-04-07T04:10:00;101600.14;;;3.64;100.0
22775;BME280;11554;51.106;3.684;2023-04-07T04:15:00;101600.55;;;3.47;100.0
22775;BME280;11554;51.106;3.684;2023-04-07T04:20:00;101601.9;;;3.25;100.0
22775;BME280;11554;51.106;3.684;2023-04-07T04:25:00;101606.92;;;3.18;100.0
22775;BME280;11554;51.106;3.684;2023-04-07T04:30:00;101613.76000000001;;;3.06;100.0
22775;BME280;11554;51.106;3.684;2023-04-07T04:35:00;101626.35;;;3.13;100.0
22775;BME280;11554;51.106;3.684;2023-04-07T04:40:00;101625.23;;;3.09;100.0
22775;BME280;11554;51.106;3.684;2023-04-07T04:45:00;101629.22;;;2.99;100.0
22775;BME280;11554;51.106;3.684;2023-04-07T04:50:00;101633.67;;;2.95;100.0
22775;BME280;11554;51.106;3.684;2023-04-07T04:55:00;101640.52;;;2.90;100.0
22775;BME280;11554;51.106;3.684;2023-04-07T05:00:00;101638.7;;;2.82;100.0
22775;BME280;11554;51.106;3.684;2023-04-07T05:05:00;101642.78;;;2.69;100.0
22775;BME280;11554;51.106;3.684;2023-04-07T05:10:00;101648.42;;;2.59;100.0
22775;BME280;11554;51.106;3.684;2023-04-07T05:15:00;101649.76000000001;;;2.62;100.0
22775;BME280;11554;51.106;3.684;2023-04-07T05:20:00;101651.23;;;2.67;100.0
22775;BME280;11554;51.106;3.684;2023-04-07T05:25:00;101659.66;;;2.71;100.0
22775;BME280;11554;51.106;3.684;2023-04-07T05:30:00;101662.28;;;2.79;100.0
22775;BME280;11554;51.106;3.684;2023-04-07T05:35:00;101664.92;;;2.94;100.0
22775;BME280;11554;51.106;3.684;2023-04-07T05:40:00;101659.75;;;3.16;100.0
22775;BME280;11554;51.106;3.684;2023-04-07T05:45:00;101660.03;;;3.35;100.0
22775;BME280;11554;51.106;3.684;2023-04-07T05:50:00;101664.56;;;3.45;100.0
22775;BME280;11554;51.106;3.684;2023-04-07T05:55:00;101670.73000000001;;;3.71;100.0
22775;BME280;11554;51.106;3.684;2023-04-07T06:00:00;101675.27;;;3.88;100.0
22775;BME280;11554;51.106;3.684;2023-04-07T06:05:00;101676.61;;;3.98;100.0
22775;BME280;11554;51.106;3.684;2023-04-07T06:10:00;101677.12;;;4.56;100.0
22775;BME280;11554;51.106;3.684;2023-04-07T06:15:00;101678.78;;;4.97;100.0
22775;BME280;11554;51.106;3.684;2023-04-07T06:20:00;101679.13;;;5.17;100.0
22775;BME280;11554;51.106;3.684;2023-04-07T06:25:00;101688.89;;;5.32;100.0
22775;BME280;11554;51.106;3.684;2023-04-07T06:30:00;101690.31999999999;;;6.66;100.0
22775;BME280;11554;51.106;3.684;2023-04-07T06:35:00;101699.48000000001;;;7.25;100.0
22775;BME280;11554;51.106;3.684;2023-04-07T06:40:00;101707.06;;;7.11;100.0
22775;BME280;11554;51.106;3.684;2023-04-07T06:45:00;101715.47;;;7.06;100.0
22775;BME280;11554;51.106;3.684;2023-04-07T06:50:00;101727.14;;;7.11;100.0
22775;BME280;11554;51.106;3.684;2023-04-07T06:55:00;101728.39;;;7.21;100.0
22775;BME280;11554;51.106;3.684;2023-04-07T07:00:00;101736.55;;;7.42;100.0
22775;BME280;11554;51.106;3.684;2023-04-07T07:05:00;101741.0;;;7.65;100.0
22775;BME280;11554;51.106;3.684;2023-04-07T07:10:00;101749.39;;;7.78;100.0
22775;BME280;11554;51.106;3.684;2023-04-07T07:15:00;101753.88;;;7.78;100.0
22775;BME280;11554;51.106;3.684;2023-04-07T07:20:00;101755.90999999999;;;7.90;100.0
22775;BME280;11554;51.106;3.684;2023-04-07T07:25:00;101757.79;;;7.95;100.0
22775;BME280;11554;51.106;3.684;2023-04-07T07:30:00;101758.01;;;8.04;100.0
22775;BME280;11554;51.106;3.684;2023-04-07T07:35:00;101759.88;;;8.95;100.0
22775;BME280;11554;51.106;3.684;2023-04-07T07:40:00;101761.36;;;9.97;100.0
22775;BME280;11554;51.106;3.684;2023-04-07T07:45:00;101766.8;;;10.58;100.0
22775;BME280;11554;51.106;3.684;2023-04-07T07:50:00;101771.37;;;11.21;100.0
22775;BME280;11554;51.106;3.684;2023-04-07T07:55:00;101770.54000000001;;;11.72;100.0
22775;BME280;11554;51.106;3.684;2023-04-07T08:00:00;101772.62;;;12.24;100.0
22775;BME280;11554;51.106;3.684;2023-04-07T08:05:00;101776.31999999999;;;12.33;100.0
22775;BME280;11554;51.106;3.684;2023-04-07T08:10:00;101785.72;;;11.81;100.0
22775;BME280;11554;51.106;3.684;2023-04-07T08:15:00;101786.63;;;11.34;100.0
22775;BME280;11554;51.106;3.684;2023-04-07T08:20:00;101796.51;;;10.96;100.0
22775;BME280;11554;51.106;3.684;2023-04-07T08:25:00;101801.05;;;10.92;100.0
22775;BME280;11554;51.106;3.684;2023-04-07T08:30:00;101807.9;;;11.25;100.0
22775;BME280;11554;51.106;3.684;2023-04-07T08:35:00;101812.15999999999;;;11.24;100.0
22775;BME280;11554;51.106;3.684;2023-04-07T08:40:00;101820.48;;;10.79;100.0
22775;BME280;11554;51.106;3.684;2023-04-07T08:45:01;101822.6;;;10.57;100.0
22775;BME280;11554;51.106;3.684;2023-04-07T08:50:01;101821.48;;;10.73;100.0
22775;BME280;11554;51.106;3.684;2023-04-07T08:55:00;101823.55;;;10.75;100.0
22775;BME280;11554;51.106;3.684;2023-04-07T09:00:01;101829.47;;;10.61;100.0
22775;BME280;11554;51.106;3.684;2023-04-07T09:05:00;101829.52;;;11.06;100.0
22775;BME280;11554;51.106;3.684;2023-04-07T09:10:00;101838.17;;;11.36;100.0
22775;BME280;11554;51.106;3.684;2023-04-07T09:15:00;101835.88;;;11.36;100.0
22775;BME280;11554;51.106;3.684;2023-04-07T09:20:00;101839.33;;;11.49;100.0
22775;BME280;11554;51.106;3.684;2023-04-07T09:25:08;101847.45;;;11.34;100.0
22775;BME280;11554;51.106;3.684;2023-04-07T09:30:09;101849.81;;;11.66;100.0
22775;BME280;11554;51.106;3.684;2023-04-07T09:35:00;101857.19;;;11.42;100.0
22775;BME280;11554;51.106;3.684;2023-04-07T09:40:00;101861.11;;;10.66;100.0
22775;BME280;11554;51.106;3.684;2023-04-07T09:45:00;101859.86;;;10.32;100.0
22775;BME280;11554;51.106;3.684;2023-04-07T09:50:00;101860.88;;;10.57;100.0
22775;BME280;11554;51.106;3.684;2023-04-07T09:55:00;101864.11;;;10.71;100.0
22775;BME280;11554;51.106;3.684;2023-04-07T10:00:00;101864.01;;;11.06;100.0
22775;BME280;11554;51.106;3.684;2023-04-07T10:05:00;101866.06;;;10.85;100.0
22775;BME280;11554;51.106;3.684;2023-04-07T10:10:00;101866.66;;;10.78;100.0
22775;BME280;11554;51.106;3.684;2023-04-07T10:15:00;101868.84;;;10.46;100.0
22775;BME280;11554;51.106;3.684;2023-04-07T10:20:00;101871.56;;;10.65;100.0
22775;BME280;11554;51.106;3.684;2023-04-07T10:25:01;101865.9;;;11.16;100.0
22775;BME280;11554;51.106;3.684;2023-04-07T10:30:00;101869.19;;;11.41;100.0
22775;BME280;11554;51.106;3.684;2023-04-07T10:35:00;101869.87000000001;;;11.69;100.0
22775;BME280;11554;51.106;3.684;2023-04-07T10:45:00;101866.94;;;13.63;97.77
22775;BME280;11554;51.106;3.684;2023-04-07T11:05:00;101872.06999999999;;;14.55;92.67
22775;BME280;11554;51.106;3.684;2023-04-07T11:10:07;101874.78;;;14.26;91.01
22775;BME280;11554;51.106;3.684;2023-04-07T11:20:00;101879.86;;;15.02;88.98
22775;BME280;11554;51.106;3.684;2023-04-07T11:25:00;101881.09;;;13.58;89.88
22775;BME280;11554;51.106;3.684;2023-04-07T11:30:00;101886.44;;;13.09;90.23
22775;BME280;11554;51.106;3.684;2023-04-07T11:35:00;101891.69;;;13.03;91.57
22775;BME280;11554;51.106;3.684;2023-04-07T11:40:00;101883.95000000001;;;13.31;91.37
22775;BME280;11554;51.106;3.684;2023-04-07T11:45:00;101891.85;;;13.54;88.99
22775;BME280;11554;51.106;3.684;2023-04-07T11:50:00;101899.72;;;13.51;89.08
22775;BME280;11554;51.106;3.684;2023-04-07T11:55:00;101909.06;;;13.18;89.9
22775;BME280;11554;51.106;3.684;2023-04-07T12:00:08;101920.98;;;12.83;92.13
22775;BME280;11554;51.106;3.684;2023-04-07T12:05:00;101927.08;;;12.93;91.75
22775;BME280;11554;51.106;3.684;2023-04-07T12:15:00;101927.59999999999;;;13.17;91.62
22775;BME280;11554;51.106;3.684;2023-04-07T12:20:00;101937.32;;;13.00;90.04
22775;BME280;11554;51.106;3.684;2023-04-07T12:25:00;101936.54000000001;;;13.13;89.59
22775;BME280;11554;51.106;3.684;2023-04-07T12:30:00;101941.66;;;12.96;89.28
22775;BME280;11554;51.106;3.684;2023-04-07T12:35:00;101948.1;;;13.12;89.58
22775;BME280;11554;51.106;3.684;2023-04-07T12:40:00;101952.43000000001;;;13.10;89.2
22775;BME280;11554;51.106;3.684;2023-04-07T12:45:00;101954.78;;;13.04;89.09
22775;BME280;11554;51.106;3.684;2023-04-07T12:50:00;101956.72;;;12.85;89.19
22775;BME280;11554;51.106;3.684;2023-04-07T12:55:00;101965.43000000001;;;12.98;90.36
22775;BME280;11554;51.106;3.684;2023-04-07T13:00:00;101967.81;;;12.67;88.72
22775;BME280;11554;51.106;3.684;2023-04-07T13:05:00;101967.28;;;12.51;89.81
22775;BME280;11554;51.106;3.684;2023-04-07T13:10:00;101975.14;;;12.73;90.74
22775;BME280;11554;51.106;3.684;2023-04-07T13:15:00;101970.2;;;12.84;89.04
22775;BME280;11554;51.106;3.684;2023-04-07T13:20:00;101972.41;;;12.92;88.86
22775;BME280;11554;51.106;3.684;2023-04-07T13:25:00;101977.4;;;12.98;87.72
22775;BME280;11554;51.106;3.684;2023-04-07T13:30:00;101977.21;;;12.84;87.49
22775;BME280;11554;51.106;3.684;2023-04-07T13:35:00;101979.36;;;12.89;86.79
22775;BME280;11554;51.106;3.684;2023-04-07T13:40:00;101980.52;;;12.68;89.06
22775;BME280;11554;51.106;3.684;2023-04-07T13:45:00;101980.61;;;12.60;88.65
22775;BME280;11554;51.106;3.684;2023-04-07T13:50:00;101981.87000000001;;;12.33;90.18
22775;BME280;11554;51.106;3.684;2023-04-07T13:55:00;101979.19;;;12.34;88.61
22775;BME280;11554;51.106;3.684;2023-04-07T14:00:00;101976.06;;;12.54;89.28
22775;BME280;11554;51.106;3.684;2023-04-07T14:05:00;101973.27;;;12.58;88.29
22775;BME280;11554;51.106;3.684;2023-04-07T14:10:00;101969.25;;;12.46;87.19
22775;BME280;11554;51.106;3.684;2023-04-07T14:15:00;101980.14;;;12.15;88.39
22775;BME280;11554;51.106;3.684;2023-04-07T14:20:00;101989.56;;;11.62;90.04
22775;BME280;11554;51.106;3.684;2023-04-07T14:25:00;101983.29;;;11.56;91.83
22775;BME280;11554;51.106;3.684;2023-04-07T14:30:00;101979.38;;;11.91;92.04
22775;BME280;11554;51.106;3.684;2023-04-07T14:35:00;101982.72;;;12.00;90.14
22775;BME280;11554;51.106;3.684;2023-04-07T14:40:00;101990.16;;;11.66;90.48
22775;BME280;11554;51.106;3.684;2023-04-07T14:45:00;101989.39;;;11.61;91.76
22775;BME280;11554;51.106;3.684;2023-04-07T14:50:00;101990.61;;;11.61;91.12
22775;BME280;11554;51.106;3.684;2023-04-07T14:55:00;101996.95;;;11.04;92.61
22775;BME280;11554;51.106;3.684;2023-04-07T15:00:01;102000.36;;;10.56;93.22
22775;BME280;11554;51.106;3.684;2023-04-07T15:05:00;102004.8;;;10.35;93.41
22775;BME280;11554;51.106;3.684;2023-04-07T15:10:00;102003.95999999999;;;10.35;94.33
22775;BME280;11554;51.106;3.684;2023-04-07T15:15:00;102009.5;;;10.27;94.02
22775;BME280;11554;51.106;3.684;2023-04-07T15:20:00;102006.58;;;10.46;94.22
22775;BME280;11554;51.106;3.684;2023-04-07T15:25:00;102012.55;;;10.58;93.52
22775;BME280;11554;51.106;3.684;2023-04-07T15:30:00;102013.9;;;10.69;93.59
22775;BME280;11554;51.106;3.684;2023-04-07T15:35:00;102014.03;;;10.59;92.81
22775;BME280;11554;51.106;3.684;2023-04-07T15:40:00;102018.16;;;10.56;93.41
22775;BME280;11554;51.106;3.684;2023-04-07T15:45:00;102018.09;;;10.36;93.04
22775;BME280;11554;51.106;3.684;2023-04-07T15:50:00;102017.04999999999;;;10.20;94.26
22775;BME280;11554;51.106;3.684;2023-04-07T15:55:00;102027.25;;;10.12;94.57
22775;BME280;11554;51.106;3.684;2023-04-07T16:00:00;102030.76999999999;;;10.04;94.59
22775;BME280;11554;51.106;3.684;2023-04-07T16:05:00;102028.8;;;10.03;94.04
22775;BME280;11554;51.106;3.684;2023-04-07T16:10:00;102028.87;;;10.06;93.93
22775;BME280;11554;51.106;3.684;2023-04-07T16:15:00;102036.5;;;9.93;92.54
22775;BME280;11554;51.106;3.684;2023-04-07T16:20:00;102034.27;;;9.82;93.14
22775;BME280;11554;51.106;3.684;2023-04-07T16:25:00;102037.29;;;9.81;93.74
22775;BME280;11554;51.106;3.684;2023-04-07T16:30:00;102038.71;;;9.77;93.96
22775;BME280;11554;51.106;3.684;2023-04-07T16:35:00;102042.07;;;9.72;94.43
22775;BME280;11554;51.106;3.684;2023-04-07T16:40:00;102050.01999999999;;;9.67;94.53
22775;BME280;11554;51.106;3.684;2023-04-07T16:45:00;102044.98;;;9.64;95.34
22775;BME280;11554;51.106;3.684;2023-04-07T16:50:01;102047.43999999999;;;9.69;95.92
22775;BME280;11554;51.106;3.684;2023-04-07T16:55:00;102051.59;;;9.62;95.96
22775;BME280;11554;51.106;3.684;2023-04-07T17:00:00;102055.40999999999;;;9.48;96.0
22775;BME280;11554;51.106;3.684;2023-04-07T17:05:00;102065.25;;;9.43;96.26
22775;BME280;11554;51.106;3.684;2023-04-07T17:10:00;102070.03;;;9.37;96.19
22775;BME280;11554;51.106;3.684;2023-04-07T17:15:00;102082.22;;;9.29;96.21
22775;BME280;11554;51.106;3.684;2023-04-07T17:20:00;102085.35;;;9.22;96.26
22775;BME280;11554;51.106;3.684;2023-04-07T17:25:00;102088.86;;;9.10;96.73
22775;BME280;11554;51.106;3.684;2023-04-07T17:30:00;102089.78;;;9.00;97.74
22775;BME280;11554;51.106;3.684;2023-04-07T17:35:00;102096.75;;;8.93;98.26
22775;BME280;11554;51.106;3.684;2023-04-07T17:40:00;102103.24;;;8.85;98.99
22775;BME280;11554;51.106;3.684;2023-04-07T17:45:00;102101.95;;;8.78;99.9
22775;BME280;11554;51.106;3.684;2023-04-07T17:50:00;102110.6;;;8.70;100.0
22775;BME280;11554;51.106;3.684;2023-04-07T17:55:00;102119.56;;;8.67;100.0
22775;BME280;11554;51.106;3.684;2023-04-07T18:00:00;102122.33;;;8.59;100.0
22775;BME280;11554;51.106;3.684;2023-04-07T18:05:00;102121.77;;;8.54;100.0
22775;BME280;11554;51.106;3.684;2023-04-07T18:10:00;102135.69;;;8.51;100.0
22775;BME280;11554;51.106;3.684;2023-04-07T18:15:00;102137.77;;;8.44;100.0
22775;BME280;11554;51.106;3.684;2023-04-07T18:20:00;102146.11;;;8.38;100.0
22775;BME280;11554;51.106;3.684;2023-04-07T18:25:00;102150.83;;;8.32;100.0
22775;BME280;11554;51.106;3.684;2023-04-07T18:30:00;102151.44;;;8.26;100.0
22775;BME280;11554;51.106;3.684;2023-04-07T18:35:00;102156.14;;;8.22;100.0
22775;BME280;11554;51.106;3.684;2023-04-07T18:40:00;102159.27;;;8.17;100.0
22775;BME280;11554;51.106;3.684;2023-04-07T18:45:00;102163.48000000001;;;8.12;100.0
22775;BME280;11554;51.106;3.684;2023-04-07T18:50:00;102164.12;;;8.09;100.0
22775;BME280;11554;51.106;3.684;2023-04-07T18:55:00;102169.09000000001;;;8.07;100.0
22775;BME280;11554;51.106;3.684;2023-04-07T19:00:00;102176.43000000001;;;8.04;100.0
22775;BME280;11554;51.106;3.684;2023-04-07T19:05:00;102178.19;;;8.03;100.0
22775;BME280;11554;51.106;3.684;2023-04-07T19:10:00;102184.25;;;8.00;100.0
22775;BME280;11554;51.106;3.684;2023-04-07T19:15:00;102191.0;;;7.98;100.0
22775;BME280;11554;51.106;3.684;2023-04-07T19:20:00;102194.45;;;7.96;100.0
22775;BME280;11554;51.106;3.684;2023-04-07T19:25:00;102198.15999999999;;;7.94;100.0
22775;BME280;11554;51.106;3.684;2023-04-07T19:30:00;102205.38;;;7.92;100.0
22775;BME280;11554;51.106;3.684;2023-04-07T19:35:00;102206.92;;;7.90;100.0
22775;BME280;11554;51.106;3.684;2023-04-07T19:40:00;102204.4;;;7.88;100.0
22775;BME280;11554;51.106;3.684;2023-04-07T19:45:00;102206.02;;;7.85;100.0
22775;BME280;11554;51.106;3.684;2023-04-07T19:50:00;102205.76999999999;;;7.84;100.0
22775;BME280;11554;51.106;3.684;2023-04-07T19:55:01;102204.6;;;7.82;100.0
22775;BME280;11554;51.106;3.684;2023-04-07T20:00:00;102210.08;;;7.80;100.0
22775;BME280;11554;51.106;3.684;2023-04-07T20:05:00;102208.62;;;7.79;100.0
22775;BME280;11554;51.106;3.684;2023-04-07T20:10:00;102212.08;;;7.77;100.0
22775;BME280;11554;51.106;3.684;2023-04-07T20:15:00;102213.75;;;7.76;100.0
22775;BME280;11554;51.106;3.684;2023-04-07T20:20:00;102221.12;;;7.74;100.0
22775;BME280;11554;51.106;3.684;2023-04-07T20:25:00;102221.3;;;7.73;100.0
22775;BME280;11554;51.106;3.684;2023-04-07T20:30:00;102223.99;;;7.70;100.0
22775;BME280;11554;51.106;3.684;2023-04-07T20:35:01;102230.81;;;7.69;100.0
22775;BME280;11554;51.106;3.684;2023-04-07T20:40:00;102232.98;;;7.66;100.0
22775;BME280;11554;51.106;3.684;2023-04-07T20:45:00;102234.36;;;7.65;100.0
22775;BME280;11554;51.106;3.684;2023-04-07T20:50:00;102235.27;;;7.62;100.0
22775;BME280;11554;51.106;3.684;2023-04-07T20:55:00;102235.72;;;7.62;100.0
22775;BME280;11554;51.106;3.684;2023-04-07T21:00:00;102237.01999999999;;;7.59;100.0
22775;BME280;11554;51.106;3.684;2023-04-07T21:05:00;102239.65;;;7.58;100.0
22775;BME280;11554;51.106;3.684;2023-04-07T21:10:00;102240.09999999999;;;7.56;100.0
22775;BME280;11554;51.106;3.684;2023-04-07T21:15:00;102241.66;;;7.53;100.0
22775;BME280;11554;51.106;3.684;2023-04-07T21:20:00;102242.07;;;7.51;100.0
22775;BME280;11554;51.106;3.684;2023-04-07T21:25:00;102233.89;;;7.49;100.0
22775;BME280;11554;51.106;3.684;2023-04-07T21:30:02;102236.53;;;7.48;100.0
22775;BME280;11554;51.106;3.684;2023-04-07T21:35:00;102241.04999999999;;;7.47;100.0
22775;BME280;11554;51.106;3.684;2023-04-07T21:40:00;102237.31;;;7.44;100.0
22775;BME280;11554;51.106;3.684;2023-04-07T21:45:00;102238.78;;;7.43;100.0
22775;BME280;11554;51.106;3.684;2023-04-07T21:50:00;102235.63;;;7.42;100.0
22775;BME280;11554;51.106;3.684;2023-04-07T21:55:00;102240.9;;;7.39;100.0
22775;BME280;11554;51.106;3.684;2023-04-07T22:00:00;102242.48999999999;;;7.36;100.0
22775;BME280;11554;51.106;3.684;2023-04-07T22:05:00;102244.12999999999;;;7.35;100.0
22775;BME280;11554;51.106;3.684;2023-04-07T22:10:00;102247.81;;;7.33;100.0
22775;BME280;11554;51.106;3.684;2023-04-07T22:15:00;102249.72;;;7.32;100.0
22775;BME280;11554;51.106;3.684;2023-04-07T22:20:00;102254.39;;;7.30;100.0
22775;BME280;11554;51.106;3.684;2023-04-07T22:25:00;102253.99;;;7.29;100.0
22775;BME280;11554;51.106;3.684;2023-04-07T22:30:00;102259.64;;;7.29;100.0
22775;BME280;11554;51.106;3.684;2023-04-07T22:35:00;102263.73;;;7.28;100.0
22775;BME280;11554;51.106;3.684;2023-04-07T22:40:00;102267.38;;;7.27;100.0
22775;BME280;11554;51.106;3.684;2023-04-07T22:45:00;102263.75;;;7.24;100.0
22775;BME280;11554;51.106;3.684;2023-04-07T22:50:00;102268.11;;;7.23;100.0
22775;BME280;11554;51.106;3.684;2023-04-07T22:55:00;102265.8;;;7.23;100.0
22775;BME280;11554;51.106;3.684;2023-04-07T23:00:00;102266.99;;;7.22;100.0
22775;BME280;11554;51.106;3.684;2023-04-07T23:05:00;102271.84;;;7.21;100.0
22775;BME280;11554;51.106;3.684;2023-04-07T23:10:00;102272.70999999999;;;7.20;100.0
22775;BME280;11554;51.106;3.684;2023-04-07T23:15:00;102269.29000000001;;;7.17;100.0
22775;BME280;11554;51.106;3.684;2023-04-07T23:20:00;102274.59;;;7.15;100.0
22775;BME280;11554;51.106;3.684;2023-04-07T23:25:00;102274.77;;;7.16;100.0
22775;BME280;11554;51.106;3.684;2023-04-07T23:30:00;102275.75;;;7.16;100.0
22775;BME280;11554;51.106;3.684;2023-04-07T23:35:00;102275.37;;;7.15;100.0
22775;BME280;11554;51.106;3.684;2023-04-07T23:40:00;102275.64;;;7.15;100.0
22775;BME280;11554;51.106;3.684;2023-04-07T23:45:00;102280.0;;;7.15;100.0
22775;BME280;11554;51.106;3.684;2023-04-07T23:50:00;102282.59000000001;;;7.14;100.0
22775;BME280;11554;51.106;3.684;2023-04-07T23:55:00;102287.5;;;7.13;100.0
